sensor_id;sensor_type;location;lat;lon;timestamp;temperature;humidity
56729;DHT22;42612;52.232;7.560;2023-06-22T00:01:16;25.80;50.00
56729;DHT22;42612;52.232;7.560;2023-06-22T00:03:42;25.80;50.00
56729;DHT22;42612;52.232;7.560;2023-06-22T00:06:08;25.80;50.00
56729;DHT22;42612;52.232;7.560;2023-06-22T00:08:34;25.80;50.00
56729;DHT22;42612;52.232;7.560;2023-06-22T00:10:59;25.70;50.00
56729;DHT22;42612;52.232;7.560;2023-06-22T00:13:25;25.70;50.00
56729;DHT22;42612;52.232;7.560;2023-06-22T00:15:51;25.60;49.90
56729;DHT22;42612;52.232;7.560;2023-06-22T00:18:16;25.60;49.90
56729;DHT22;42612;52.232;7.560;2023-06-22T00:20:42;25.60;50.00
56729;DHT22;42612;52.232;7.560;2023-06-22T00:23:08;25.50;50.00
56729;DHT22;42612;52.232;7.560;2023-06-22T00:25:40;25.50;50.00
56729;DHT22;42612;52.232;7.560;2023-06-22T00:28:06;25.50;50.50
56729;DHT22;42612;52.232;7.560;2023-06-22T00:30:33;25.40;50.10
56729;DHT22;42612;52.232;7.560;2023-06-22T00:32:59;25.40;50.20
56729;DHT22;42612;52.232;7.560;2023-06-22T00:35:26;25.40;50.30
56729;DHT22;42612;52.232;7.560;2023-06-22T00:37:59;25.40;50.30
56729;DHT22;42612;52.232;7.560;2023-06-22T00:40:29;25.40;50.50
56729;DHT22;42612;52.232;7.560;2023-06-22T00:42:56;25.40;50.60
56729;DHT22;42612;52.232;7.560;2023-06-22T00:45:23;25.40;50.20
56729;DHT22;42612;52.232;7.560;2023-06-22T00:47:53;25.40;50.20
56729;DHT22;42612;52.232;7.560;2023-06-22T00:50:22;25.40;50.30
56729;DHT22;42612;52.232;7.560;2023-06-22T00:52:51;25.40;50.80
56729;DHT22;42612;52.232;7.560;2023-06-22T00:55:20;25.40;50.30
56729;DHT22;42612;52.232;7.560;2023-06-22T00:57:46;25.40;50.10
56729;DHT22;42612;52.232;7.560;2023-06-22T01:00:14;25.40;50.10
56729;DHT22;42612;52.232;7.560;2023-06-22T01:02:45;25.40;50.10
56729;DHT22;42612;52.232;7.560;2023-06-22T01:05:13;25.40;50.10
56729;DHT22;42612;52.232;7.560;2023-06-22T01:13:35;25.30;50.10
56729;DHT22;42612;52.232;7.560;2023-06-22T01:16:07;25.30;50.40
56729;DHT22;42612;52.232;7.560;2023-06-22T01:18:40;25.30;50.10
56729;DHT22;42612;52.232;7.560;2023-06-22T01:21:09;25.20;50.20
56729;DHT22;42612;52.232;7.560;2023-06-22T01:24:23;25.30;50.20
56729;DHT22;42612;52.232;7.560;2023-06-22T01:27:33;25.20;50.50
56729;DHT22;42612;52.232;7.560;2023-06-22T01:30:11;25.20;50.30
56729;DHT22;42612;52.232;7.560;2023-06-22T01:32:40;25.20;50.00
56729;DHT22;42612;52.232;7.560;2023-06-22T01:35:07;25.10;50.00
56729;DHT22;42612;52.232;7.560;2023-06-22T01:37:35;25.10;50.00
56729;DHT22;42612;52.232;7.560;2023-06-22T01:40:03;25.00;50.00
56729;DHT22;42612;52.232;7.560;2023-06-22T01:42:31;25.00;50.00
56729;DHT22;42612;52.232;7.560;2023-06-22T01:44:58;24.90;50.00
56729;DHT22;42612;52.232;7.560;2023-06-22T01:47:25;24.90;50.20
56729;DHT22;42612;52.232;7.560;2023-06-22T01:49:53;24.80;50.30
56729;DHT22;42612;52.232;7.560;2023-06-22T01:52:19;24.80;50.40
56729;DHT22;42612;52.232;7.560;2023-06-22T01:54:46;24.70;50.50
56729;DHT22;42612;52.232;7.560;2023-06-22T01:57:12;24.80;50.50
56729;DHT22;42612;52.232;7.560;2023-06-22T01:59:48;24.70;50.30
56729;DHT22;42612;52.232;7.560;2023-06-22T02:02:20;24.70;50.70
56729;DHT22;42612;52.232;7.560;2023-06-22T02:04:53;24.70;50.60
56729;DHT22;42612;52.232;7.560;2023-06-22T02:07:29;24.60;50.70
56729;DHT22;42612;52.232;7.560;2023-06-22T02:09:59;24.60;50.70
56729;DHT22;42612;52.232;7.560;2023-06-22T02:12:26;24.60;50.70
56729;DHT22;42612;52.232;7.560;2023-06-22T02:14:53;24.60;50.70
56729;DHT22;42612;52.232;7.560;2023-06-22T02:17:20;24.60;50.70
56729;DHT22;42612;52.232;7.560;2023-06-22T02:19:46;24.70;50.70
56729;DHT22;42612;52.232;7.560;2023-06-22T02:22:11;24.60;50.80
56729;DHT22;42612;52.232;7.560;2023-06-22T02:24:40;24.70;50.80
56729;DHT22;42612;52.232;7.560;2023-06-22T02:27:06;24.60;50.90
56729;DHT22;42612;52.232;7.560;2023-06-22T02:29:32;24.60;50.90
56729;DHT22;42612;52.232;7.560;2023-06-22T02:31:58;24.60;50.90
56729;DHT22;42612;52.232;7.560;2023-06-22T02:34:25;24.60;50.90
56729;DHT22;42612;52.232;7.560;2023-06-22T02:36:50;24.60;50.90
56729;DHT22;42612;52.232;7.560;2023-06-22T02:39:21;24.60;50.90
56729;DHT22;42612;52.232;7.560;2023-06-22T02:41:52;24.60;51.00
56729;DHT22;42612;52.232;7.560;2023-06-22T02:44:19;24.60;51.00
56729;DHT22;42612;52.232;7.560;2023-06-22T02:46:46;24.50;50.80
56729;DHT22;42612;52.232;7.560;2023-06-22T02:49:12;24.50;50.90
56729;DHT22;42612;52.232;7.560;2023-06-22T02:51:41;24.50;51.00
56729;DHT22;42612;52.232;7.560;2023-06-22T02:54:09;24.40;50.80
56729;DHT22;42612;52.232;7.560;2023-06-22T02:56:35;24.40;51.00
56729;DHT22;42612;52.232;7.560;2023-06-22T02:59:02;24.40;51.20
56729;DHT22;42612;52.232;7.560;2023-06-22T03:01:28;24.30;51.20
56729;DHT22;42612;52.232;7.560;2023-06-22T03:04:14;24.30;51.30
56729;DHT22;42612;52.232;7.560;2023-06-22T03:06:40;24.30;51.40
56729;DHT22;42612;52.232;7.560;2023-06-22T03:09:06;24.30;51.40
56729;DHT22;42612;52.232;7.560;2023-06-22T03:11:33;24.30;51.40
56729;DHT22;42612;52.232;7.560;2023-06-22T03:14:00;24.20;51.50
56729;DHT22;42612;52.232;7.560;2023-06-22T03:16:26;24.20;51.50
56729;DHT22;42612;52.232;7.560;2023-06-22T03:18:52;24.20;51.50
56729;DHT22;42612;52.232;7.560;2023-06-22T03:21:19;24.20;51.70
56729;DHT22;42612;52.232;7.560;2023-06-22T03:23:47;24.10;51.70
56729;DHT22;42612;52.232;7.560;2023-06-22T03:26:12;24.10;51.80
56729;DHT22;42612;52.232;7.560;2023-06-22T03:28:38;24.20;51.90
56729;DHT22;42612;52.232;7.560;2023-06-22T03:31:04;24.10;51.90
56729;DHT22;42612;52.232;7.560;2023-06-22T03:33:32;24.10;51.90
56729;DHT22;42612;52.232;7.560;2023-06-22T03:35:57;24.10;51.90
56729;DHT22;42612;52.232;7.560;2023-06-22T03:38:23;24.10;52.00
56729;DHT22;42612;52.232;7.560;2023-06-22T03:40:49;24.10;52.00
56729;DHT22;42612;52.232;7.560;2023-06-22T03:43:14;24.10;52.00
56729;DHT22;42612;52.232;7.560;2023-06-22T03:45:40;24.10;52.10
56729;DHT22;42612;52.232;7.560;2023-06-22T03:48:06;24.10;52.20
56729;DHT22;42612;52.232;7.560;2023-06-22T03:50:31;24.10;52.30
56729;DHT22;42612;52.232;7.560;2023-06-22T03:52:57;24.20;52.20
56729;DHT22;42612;52.232;7.560;2023-06-22T03:55:23;24.10;52.10
56729;DHT22;42612;52.232;7.560;2023-06-22T03:57:48;24.10;52.70
56729;DHT22;42612;52.232;7.560;2023-06-22T04:00:14;24.10;52.60
56729;DHT22;42612;52.232;7.560;2023-06-22T04:02:43;24.10;51.90
56729;DHT22;42612;52.232;7.560;2023-06-22T04:05:09;24.20;51.90
56729;DHT22;42612;52.232;7.560;2023-06-22T04:07:35;24.10;52.00
56729;DHT22;42612;52.232;7.560;2023-06-22T04:10:03;24.10;51.90
56729;DHT22;42612;52.232;7.560;2023-06-22T04:12:29;24.10;51.90
56729;DHT22;42612;52.232;7.560;2023-06-22T04:14:55;24.10;51.90
56729;DHT22;42612;52.232;7.560;2023-06-22T04:17:21;24.10;52.00
56729;DHT22;42612;52.232;7.560;2023-06-22T04:19:47;24.20;51.90
56729;DHT22;42612;52.232;7.560;2023-06-22T04:22:12;24.20;52.00
56729;DHT22;42612;52.232;7.560;2023-06-22T04:24:38;24.20;52.00
56729;DHT22;42612;52.232;7.560;2023-06-22T04:27:04;24.20;52.10
56729;DHT22;42612;52.232;7.560;2023-06-22T04:29:30;24.20;52.10
56729;DHT22;42612;52.232;7.560;2023-06-22T04:31:57;24.20;52.00
56729;DHT22;42612;52.232;7.560;2023-06-22T04:34:29;24.20;52.10
56729;DHT22;42612;52.232;7.560;2023-06-22T04:36:55;24.20;52.10
56729;DHT22;42612;52.232;7.560;2023-06-22T04:39:21;24.20;52.10
56729;DHT22;42612;52.232;7.560;2023-06-22T04:41:47;24.30;52.30
56729;DHT22;42612;52.232;7.560;2023-06-22T04:44:18;24.30;52.30
56729;DHT22;42612;52.232;7.560;2023-06-22T04:46:55;24.30;52.50
56729;DHT22;42612;52.232;7.560;2023-06-22T04:49:29;24.30;52.30
56729;DHT22;42612;52.232;7.560;2023-06-22T04:51:59;24.30;52.10
56729;DHT22;42612;52.232;7.560;2023-06-22T04:54:26;24.30;52.10
56729;DHT22;42612;52.232;7.560;2023-06-22T04:56:51;24.30;52.10
56729;DHT22;42612;52.232;7.560;2023-06-22T04:59:23;24.30;52.10
56729;DHT22;42612;52.232;7.560;2023-06-22T05:01:54;24.30;52.20
56729;DHT22;42612;52.232;7.560;2023-06-22T05:04:23;24.30;52.40
56729;DHT22;42612;52.232;7.560;2023-06-22T05:06:50;24.30;52.50
56729;DHT22;42612;52.232;7.560;2023-06-22T05:09:16;24.30;52.60
56729;DHT22;42612;52.232;7.560;2023-06-22T05:11:43;24.40;52.70
56729;DHT22;42612;52.232;7.560;2023-06-22T05:14:09;24.40;52.70
56729;DHT22;42612;52.232;7.560;2023-06-22T05:16:35;24.40;52.70
56729;DHT22;42612;52.232;7.560;2023-06-22T05:19:02;24.50;52.80
56729;DHT22;42612;52.232;7.560;2023-06-22T05:21:31;24.60;52.60
56729;DHT22;42612;52.232;7.560;2023-06-22T05:23:57;24.60;52.60
56729;DHT22;42612;52.232;7.560;2023-06-22T05:26:26;24.70;52.50
56729;DHT22;42612;52.232;7.560;2023-06-22T05:28:52;24.70;52.40
56729;DHT22;42612;52.232;7.560;2023-06-22T05:31:19;24.80;52.30
56729;DHT22;42612;52.232;7.560;2023-06-22T05:33:49;24.80;52.30
56729;DHT22;42612;52.232;7.560;2023-06-22T05:36:17;24.80;52.20
56729;DHT22;42612;52.232;7.560;2023-06-22T05:38:45;24.90;52.20
56729;DHT22;42612;52.232;7.560;2023-06-22T05:41:11;24.90;52.20
56729;DHT22;42612;52.232;7.560;2023-06-22T05:43:37;24.90;52.10
56729;DHT22;42612;52.232;7.560;2023-06-22T05:46:04;25.00;51.90
56729;DHT22;42612;52.232;7.560;2023-06-22T05:48:50;25.00;51.80
56729;DHT22;42612;52.232;7.560;2023-06-22T05:51:16;25.00;51.80
56729;DHT22;42612;52.232;7.560;2023-06-22T05:53:41;25.00;51.70
56729;DHT22;42612;52.232;7.560;2023-06-22T05:56:07;25.10;51.90
56729;DHT22;42612;52.232;7.560;2023-06-22T05:58:33;25.10;51.80
56729;DHT22;42612;52.232;7.560;2023-06-22T06:00:59;25.10;51.90
56729;DHT22;42612;52.232;7.560;2023-06-22T06:03:25;25.10;51.80
56729;DHT22;42612;52.232;7.560;2023-06-22T06:05:54;25.20;51.80
56729;DHT22;42612;52.232;7.560;2023-06-22T06:08:19;25.20;51.70
56729;DHT22;42612;52.232;7.560;2023-06-22T06:10:45;25.20;51.80
56729;DHT22;42612;52.232;7.560;2023-06-22T06:13:11;25.30;51.80
56729;DHT22;42612;52.232;7.560;2023-06-22T06:15:37;25.30;51.70
56729;DHT22;42612;52.232;7.560;2023-06-22T06:18:02;25.40;51.80
56729;DHT22;42612;52.232;7.560;2023-06-22T06:20:30;25.40;51.70
56729;DHT22;42612;52.232;7.560;2023-06-22T06:22:56;25.40;51.60
56729;DHT22;42612;52.232;7.560;2023-06-22T06:25:22;25.50;51.60
56729;DHT22;42612;52.232;7.560;2023-06-22T06:27:50;25.50;51.50
56729;DHT22;42612;52.232;7.560;2023-06-22T06:30:28;25.50;51.40
56729;DHT22;42612;52.232;7.560;2023-06-22T06:32:54;25.60;51.50
56729;DHT22;42612;52.232;7.560;2023-06-22T06:35:21;25.60;51.50
56729;DHT22;42612;52.232;7.560;2023-06-22T06:37:49;25.70;51.60
56729;DHT22;42612;52.232;7.560;2023-06-22T06:40:16;25.70;51.50
56729;DHT22;42612;52.232;7.560;2023-06-22T06:42:45;25.70;51.40
56729;DHT22;42612;52.232;7.560;2023-06-22T06:45:23;25.80;51.70
56729;DHT22;42612;52.232;7.560;2023-06-22T06:47:51;25.90;51.70
56729;DHT22;42612;52.232;7.560;2023-06-22T06:50:17;25.90;51.60
56729;DHT22;42612;52.232;7.560;2023-06-22T06:52:43;25.90;51.40
56729;DHT22;42612;52.232;7.560;2023-06-22T06:55:09;26.00;51.30
56729;DHT22;42612;52.232;7.560;2023-06-22T06:57:38;26.10;51.30
56729;DHT22;42612;52.232;7.560;2023-06-22T07:00:07;26.10;51.30
56729;DHT22;42612;52.232;7.560;2023-06-22T07:02:37;26.20;51.30
56729;DHT22;42612;52.232;7.560;2023-06-22T07:05:10;26.20;51.00
56729;DHT22;42612;52.232;7.560;2023-06-22T07:07:37;26.30;51.00
56729;DHT22;42612;52.232;7.560;2023-06-22T07:10:03;26.30;50.90
56729;DHT22;42612;52.232;7.560;2023-06-22T07:12:30;26.40;51.00
56729;DHT22;42612;52.232;7.560;2023-06-22T07:15:04;26.40;51.10
56729;DHT22;42612;52.232;7.560;2023-06-22T07:17:33;26.40;50.70
56729;DHT22;42612;52.232;7.560;2023-06-22T07:20:00;26.40;51.00
56729;DHT22;42612;52.232;7.560;2023-06-22T07:22:26;26.50;51.10
56729;DHT22;42612;52.232;7.560;2023-06-22T07:24:52;26.50;51.10
56729;DHT22;42612;52.232;7.560;2023-06-22T07:27:17;26.50;50.70
56729;DHT22;42612;52.232;7.560;2023-06-22T07:29:46;26.50;50.80
56729;DHT22;42612;52.232;7.560;2023-06-22T07:32:12;26.50;50.90
56729;DHT22;42612;52.232;7.560;2023-06-22T07:34:38;26.50;51.10
56729;DHT22;42612;52.232;7.560;2023-06-22T07:37:04;26.50;51.00
56729;DHT22;42612;52.232;7.560;2023-06-22T07:39:30;26.50;51.00
56729;DHT22;42612;52.232;7.560;2023-06-22T07:41:56;26.50;51.00
56729;DHT22;42612;52.232;7.560;2023-06-22T07:44:21;26.60;51.00
56729;DHT22;42612;52.232;7.560;2023-06-22T07:46:47;26.60;51.00
56729;DHT22;42612;52.232;7.560;2023-06-22T07:49:13;26.60;50.80
56729;DHT22;42612;52.232;7.560;2023-06-22T07:51:38;26.60;50.90
56729;DHT22;42612;52.232;7.560;2023-06-22T07:54:04;26.70;50.80
56729;DHT22;42612;52.232;7.560;2023-06-22T07:56:30;26.70;50.80
56729;DHT22;42612;52.232;7.560;2023-06-22T07:58:56;26.70;50.80
56729;DHT22;42612;52.232;7.560;2023-06-22T08:01:23;26.70;50.80
56729;DHT22;42612;52.232;7.560;2023-06-22T08:03:49;26.70;50.70
56729;DHT22;42612;52.232;7.560;2023-06-22T08:06:15;26.70;50.70
56729;DHT22;42612;52.232;7.560;2023-06-22T08:08:41;26.70;50.60
56729;DHT22;42612;52.232;7.560;2023-06-22T08:11:08;26.80;50.80
56729;DHT22;42612;52.232;7.560;2023-06-22T08:13:34;26.80;50.60
56729;DHT22;42612;52.232;7.560;2023-06-22T08:16:00;26.80;50.50
56729;DHT22;42612;52.232;7.560;2023-06-22T08:18:26;26.80;50.40
56729;DHT22;42612;52.232;7.560;2023-06-22T08:20:52;26.80;50.40
56729;DHT22;42612;52.232;7.560;2023-06-22T08:23:18;26.90;50.40
56729;DHT22;42612;52.232;7.560;2023-06-22T08:25:45;26.90;50.50
56729;DHT22;42612;52.232;7.560;2023-06-22T08:28:11;26.90;50.50
56729;DHT22;42612;52.232;7.560;2023-06-22T08:30:38;26.90;50.40
56729;DHT22;42612;52.232;7.560;2023-06-22T08:33:04;26.90;50.50
56729;DHT22;42612;52.232;7.560;2023-06-22T08:35:30;26.90;50.40
56729;DHT22;42612;52.232;7.560;2023-06-22T08:37:56;26.90;50.50
56729;DHT22;42612;52.232;7.560;2023-06-22T08:40:22;26.90;50.50
56729;DHT22;42612;52.232;7.560;2023-06-22T08:42:49;26.90;50.40
56729;DHT22;42612;52.232;7.560;2023-06-22T08:45:15;26.90;50.40
56729;DHT22;42612;52.232;7.560;2023-06-22T08:47:41;26.90;50.40
56729;DHT22;42612;52.232;7.560;2023-06-22T08:50:11;26.90;50.50
56729;DHT22;42612;52.232;7.560;2023-06-22T08:52:38;27.00;50.50
56729;DHT22;42612;52.232;7.560;2023-06-22T08:55:07;27.00;50.40
56729;DHT22;42612;52.232;7.560;2023-06-22T08:57:34;27.00;50.30
56729;DHT22;42612;52.232;7.560;2023-06-22T08:59:59;27.00;50.30
56729;DHT22;42612;52.232;7.560;2023-06-22T09:02:26;27.00;50.20
56729;DHT22;42612;52.232;7.560;2023-06-22T09:04:56;27.00;50.20
56729;DHT22;42612;52.232;7.560;2023-06-22T09:07:23;27.10;50.30
56729;DHT22;42612;52.232;7.560;2023-06-22T09:09:50;27.10;50.30
56729;DHT22;42612;52.232;7.560;2023-06-22T09:12:16;27.20;50.40
56729;DHT22;42612;52.232;7.560;2023-06-22T09:14:45;27.30;50.20
56729;DHT22;42612;52.232;7.560;2023-06-22T09:17:12;27.30;50.00
56729;DHT22;42612;52.232;7.560;2023-06-22T09:19:38;27.30;50.00
56729;DHT22;42612;52.232;7.560;2023-06-22T09:22:04;27.40;50.00
56729;DHT22;42612;52.232;7.560;2023-06-22T09:24:32;27.40;50.00
56729;DHT22;42612;52.232;7.560;2023-06-22T09:26:58;27.50;50.00
56729;DHT22;42612;52.232;7.560;2023-06-22T09:29:24;27.50;50.00
56729;DHT22;42612;52.232;7.560;2023-06-22T09:31:49;27.50;50.00
56729;DHT22;42612;52.232;7.560;2023-06-22T09:34:16;27.60;49.90
56729;DHT22;42612;52.232;7.560;2023-06-22T09:36:46;27.60;49.70
56729;DHT22;42612;52.232;7.560;2023-06-22T09:39:11;27.60;49.70
56729;DHT22;42612;52.232;7.560;2023-06-22T09:41:37;27.70;49.70
56729;DHT22;42612;52.232;7.560;2023-06-22T09:44:03;27.70;49.70
56729;DHT22;42612;52.232;7.560;2023-06-22T09:46:29;27.80;49.80
56729;DHT22;42612;52.232;7.560;2023-06-22T09:48:55;27.90;49.70
56729;DHT22;42612;52.232;7.560;2023-06-22T09:51:20;27.90;49.70
56729;DHT22;42612;52.232;7.560;2023-06-22T09:53:47;28.00;49.60
56729;DHT22;42612;52.232;7.560;2023-06-22T09:56:13;28.00;49.60
56729;DHT22;42612;52.232;7.560;2023-06-22T09:58:44;28.10;49.50
56729;DHT22;42612;52.232;7.560;2023-06-22T10:01:11;28.10;49.40
56729;DHT22;42612;52.232;7.560;2023-06-22T10:03:40;28.10;49.40
56729;DHT22;42612;52.232;7.560;2023-06-22T10:06:06;28.10;49.20
56729;DHT22;42612;52.232;7.560;2023-06-22T10:08:33;28.20;49.10
56729;DHT22;42612;52.232;7.560;2023-06-22T10:10:58;28.20;49.10
56729;DHT22;42612;52.232;7.560;2023-06-22T10:13:24;28.20;49.20
56729;DHT22;42612;52.232;7.560;2023-06-22T10:15:50;28.20;49.20
56729;DHT22;42612;52.232;7.560;2023-06-22T10:18:17;28.30;49.30
56729;DHT22;42612;52.232;7.560;2023-06-22T10:20:47;28.30;49.30
56729;DHT22;42612;52.232;7.560;2023-06-22T10:23:13;28.40;49.20
56729;DHT22;42612;52.232;7.560;2023-06-22T10:25:39;28.40;49.10
56729;DHT22;42612;52.232;7.560;2023-06-22T10:28:05;28.40;49.00
56729;DHT22;42612;52.232;7.560;2023-06-22T10:30:30;28.50;48.90
56729;DHT22;42612;52.232;7.560;2023-06-22T10:32:56;28.50;49.00
56729;DHT22;42612;52.232;7.560;2023-06-22T10:35:22;28.50;49.00
56729;DHT22;42612;52.232;7.560;2023-06-22T10:37:49;28.60;48.90
56729;DHT22;42612;52.232;7.560;2023-06-22T10:40:15;28.60;48.90
56729;DHT22;42612;52.232;7.560;2023-06-22T10:42:41;28.60;48.90
56729;DHT22;42612;52.232;7.560;2023-06-22T10:45:08;28.60;48.60
56729;DHT22;42612;52.232;7.560;2023-06-22T10:47:34;28.60;48.60
56729;DHT22;42612;52.232;7.560;2023-06-22T10:50:01;28.60;48.50
56729;DHT22;42612;52.232;7.560;2023-06-22T10:52:27;28.60;48.40
56729;DHT22;42612;52.232;7.560;2023-06-22T10:54:52;28.60;48.40
56729;DHT22;42612;52.232;7.560;2023-06-22T10:57:18;28.60;48.40
56729;DHT22;42612;52.232;7.560;2023-06-22T10:59:44;28.60;48.40
56729;DHT22;42612;52.232;7.560;2023-06-22T11:02:10;28.60;48.30
56729;DHT22;42612;52.232;7.560;2023-06-22T11:04:35;28.60;48.30
56729;DHT22;42612;52.232;7.560;2023-06-22T11:07:01;28.60;48.30
56729;DHT22;42612;52.232;7.560;2023-06-22T11:09:27;28.60;48.40
56729;DHT22;42612;52.232;7.560;2023-06-22T11:11:53;28.60;48.20
56729;DHT22;42612;52.232;7.560;2023-06-22T11:14:19;28.60;48.20
56729;DHT22;42612;52.232;7.560;2023-06-22T11:16:46;28.60;48.10
56729;DHT22;42612;52.232;7.560;2023-06-22T11:19:12;28.60;48.20
56729;DHT22;42612;52.232;7.560;2023-06-22T11:21:38;28.50;48.20
56729;DHT22;42612;52.232;7.560;2023-06-22T11:24:04;28.50;48.30
56729;DHT22;42612;52.232;7.560;2023-06-22T11:26:30;28.50;48.40
56729;DHT22;42612;52.232;7.560;2023-06-22T11:28:57;28.50;48.40
56729;DHT22;42612;52.232;7.560;2023-06-22T11:31:23;28.50;48.40
56729;DHT22;42612;52.232;7.560;2023-06-22T11:33:49;28.50;48.30
56729;DHT22;42612;52.232;7.560;2023-06-22T11:36:15;28.50;48.30
56729;DHT22;42612;52.232;7.560;2023-06-22T11:38:42;28.50;48.30
56729;DHT22;42612;52.232;7.560;2023-06-22T11:41:09;28.50;48.30
56729;DHT22;42612;52.232;7.560;2023-06-22T11:43:35;28.60;48.40
56729;DHT22;42612;52.232;7.560;2023-06-22T11:46:05;28.50;48.40
56729;DHT22;42612;52.232;7.560;2023-06-22T11:48:31;28.60;48.40
56729;DHT22;42612;52.232;7.560;2023-06-22T11:50:57;28.60;48.50
56729;DHT22;42612;52.232;7.560;2023-06-22T11:53:25;28.60;48.40
56729;DHT22;42612;52.232;7.560;2023-06-22T11:55:52;28.60;48.40
56729;DHT22;42612;52.232;7.560;2023-06-22T11:58:19;28.60;48.40
56729;DHT22;42612;52.232;7.560;2023-06-22T12:00:45;28.70;48.50
56729;DHT22;42612;52.232;7.560;2023-06-22T12:03:10;28.70;48.60
56729;DHT22;42612;52.232;7.560;2023-06-22T12:05:44;28.80;48.70
56729;DHT22;42612;52.232;7.560;2023-06-22T12:08:10;28.80;48.40
56729;DHT22;42612;52.232;7.560;2023-06-22T12:10:37;28.90;48.30
56729;DHT22;42612;52.232;7.560;2023-06-22T12:13:02;29.00;48.20
56729;DHT22;42612;52.232;7.560;2023-06-22T12:15:28;29.00;48.00
56729;DHT22;42612;52.232;7.560;2023-06-22T12:17:54;29.10;47.80
56729;DHT22;42612;52.232;7.560;2023-06-22T12:20:19;29.10;47.70
56729;DHT22;42612;52.232;7.560;2023-06-22T12:22:45;29.10;47.50
56729;DHT22;42612;52.232;7.560;2023-06-22T12:25:11;29.10;47.40
56729;DHT22;42612;52.232;7.560;2023-06-22T12:27:37;29.00;47.30
56729;DHT22;42612;52.232;7.560;2023-06-22T12:30:04;29.00;47.20
56729;DHT22;42612;52.232;7.560;2023-06-22T12:32:30;29.00;47.10
56729;DHT22;42612;52.232;7.560;2023-06-22T12:34:59;29.00;47.30
56729;DHT22;42612;52.232;7.560;2023-06-22T12:37:24;29.00;47.20
56729;DHT22;42612;52.232;7.560;2023-06-22T12:39:50;29.00;48.10
56729;DHT22;42612;52.232;7.560;2023-06-22T12:42:16;29.00;47.40
56729;DHT22;42612;52.232;7.560;2023-06-22T12:44:42;28.90;47.30
56729;DHT22;42612;52.232;7.560;2023-06-22T12:47:08;28.90;47.30
56729;DHT22;42612;52.232;7.560;2023-06-22T12:49:35;28.90;47.40
56729;DHT22;42612;52.232;7.560;2023-06-22T12:52:01;28.90;47.50
56729;DHT22;42612;52.232;7.560;2023-06-22T12:54:27;28.90;47.50
56729;DHT22;42612;52.232;7.560;2023-06-22T12:56:56;28.90;47.60
56729;DHT22;42612;52.232;7.560;2023-06-22T12:59:22;28.80;47.60
56729;DHT22;42612;52.232;7.560;2023-06-22T13:01:48;28.80;47.70
56729;DHT22;42612;52.232;7.560;2023-06-22T13:04:13;28.80;47.90
56729;DHT22;42612;52.232;7.560;2023-06-22T13:06:44;28.80;48.30
56729;DHT22;42612;52.232;7.560;2023-06-22T13:09:14;28.70;48.80
56729;DHT22;42612;52.232;7.560;2023-06-22T13:11:41;28.70;48.90
56729;DHT22;42612;52.232;7.560;2023-06-22T13:14:07;28.70;49.20
56729;DHT22;42612;52.232;7.560;2023-06-22T13:16:33;28.60;49.00
56729;DHT22;42612;52.232;7.560;2023-06-22T13:18:59;28.60;49.00
56729;DHT22;42612;52.232;7.560;2023-06-22T13:21:24;28.50;49.00
56729;DHT22;42612;52.232;7.560;2023-06-22T13:23:50;28.50;49.10
56729;DHT22;42612;52.232;7.560;2023-06-22T13:26:16;28.40;49.20
56729;DHT22;42612;52.232;7.560;2023-06-22T13:28:41;28.40;49.30
56729;DHT22;42612;52.232;7.560;2023-06-22T13:31:07;28.40;49.40
56729;DHT22;42612;52.232;7.560;2023-06-22T13:33:33;28.40;50.00
56729;DHT22;42612;52.232;7.560;2023-06-22T13:35:58;28.40;50.30
56729;DHT22;42612;52.232;7.560;2023-06-22T13:38:24;28.30;50.40
56729;DHT22;42612;52.232;7.560;2023-06-22T13:40:50;28.30;50.60
56729;DHT22;42612;52.232;7.560;2023-06-22T13:43:16;28.30;51.00
56729;DHT22;42612;52.232;7.560;2023-06-22T13:45:42;28.30;51.20
56729;DHT22;42612;52.232;7.560;2023-06-22T13:48:08;28.20;51.30
56729;DHT22;42612;52.232;7.560;2023-06-22T13:50:34;28.20;51.60
56729;DHT22;42612;52.232;7.560;2023-06-22T13:53:00;28.20;51.90
56729;DHT22;42612;52.232;7.560;2023-06-22T13:55:26;28.10;52.10
56729;DHT22;42612;52.232;7.560;2023-06-22T13:57:52;28.00;52.40
56729;DHT22;42612;52.232;7.560;2023-06-22T14:00:18;28.00;52.60
56729;DHT22;42612;52.232;7.560;2023-06-22T14:02:44;28.00;53.00
56729;DHT22;42612;52.232;7.560;2023-06-22T14:05:10;27.90;53.00
56729;DHT22;42612;52.232;7.560;2023-06-22T14:07:36;27.90;53.20
56729;DHT22;42612;52.232;7.560;2023-06-22T14:10:03;27.80;53.50
56729;DHT22;42612;52.232;7.560;2023-06-22T14:12:29;27.80;53.80
56729;DHT22;42612;52.232;7.560;2023-06-22T14:14:55;27.70;53.90
56729;DHT22;42612;52.232;7.560;2023-06-22T14:17:22;27.70;54.40
56729;DHT22;42612;52.232;7.560;2023-06-22T14:19:51;27.70;54.40
56729;DHT22;42612;52.232;7.560;2023-06-22T14:22:21;27.70;54.50
56729;DHT22;42612;52.232;7.560;2023-06-22T14:24:50;27.60;54.90
56729;DHT22;42612;52.232;7.560;2023-06-22T14:27:16;27.70;55.70
56729;DHT22;42612;52.232;7.560;2023-06-22T14:29:42;27.70;55.90
56729;DHT22;42612;52.232;7.560;2023-06-22T14:32:08;27.70;55.70
56729;DHT22;42612;52.232;7.560;2023-06-22T14:34:34;27.70;55.80
56729;DHT22;42612;52.232;7.560;2023-06-22T14:37:01;27.70;55.80
56729;DHT22;42612;52.232;7.560;2023-06-22T14:39:27;27.80;55.60
56729;DHT22;42612;52.232;7.560;2023-06-22T14:41:53;27.80;55.30
56729;DHT22;42612;52.232;7.560;2023-06-22T14:44:19;27.70;55.30
56729;DHT22;42612;52.232;7.560;2023-06-22T14:46:45;27.70;55.50
56729;DHT22;42612;52.232;7.560;2023-06-22T14:49:10;27.70;55.60
56729;DHT22;42612;52.232;7.560;2023-06-22T14:51:36;27.70;55.80
56729;DHT22;42612;52.232;7.560;2023-06-22T14:54:02;27.70;55.80
56729;DHT22;42612;52.232;7.560;2023-06-22T14:56:27;27.70;55.80
56729;DHT22;42612;52.232;7.560;2023-06-22T14:58:53;27.80;55.90
56729;DHT22;42612;52.232;7.560;2023-06-22T15:01:19;27.80;56.10
56729;DHT22;42612;52.232;7.560;2023-06-22T15:03:44;27.80;55.90
56729;DHT22;42612;52.232;7.560;2023-06-22T15:06:10;27.80;55.70
56729;DHT22;42612;52.232;7.560;2023-06-22T15:08:40;27.90;55.60
56729;DHT22;42612;52.232;7.560;2023-06-22T15:11:06;27.90;55.50
56729;DHT22;42612;52.232;7.560;2023-06-22T15:13:33;27.90;55.40
56729;DHT22;42612;52.232;7.560;2023-06-22T15:16:03;27.90;55.10
56729;DHT22;42612;52.232;7.560;2023-06-22T15:18:29;27.90;55.20
56729;DHT22;42612;52.232;7.560;2023-06-22T15:20:55;28.00;55.30
56729;DHT22;42612;52.232;7.560;2023-06-22T15:23:21;28.00;55.30
56729;DHT22;42612;52.232;7.560;2023-06-22T15:25:46;28.00;55.10
56729;DHT22;42612;52.232;7.560;2023-06-22T15:28:12;28.00;55.10
56729;DHT22;42612;52.232;7.560;2023-06-22T15:30:38;28.00;55.20
56729;DHT22;42612;52.232;7.560;2023-06-22T15:33:04;28.00;55.20
56729;DHT22;42612;52.232;7.560;2023-06-22T15:35:30;27.90;54.90